Time;durP1;ratioP1;P1;durP2;ratioP2;P2;SDS_P1;SDS_P2;PMS_P1;PMS_P2;Temp;Humidity;BMP_temperature;BMP_pressure;BME280_temperature;BME280_humidity;BME280_pressure;Samples;Min_cycle;Max_cycle;Signal;HPM_P1;HPM_P2
2022/10/24 00:00:22;;;;;;;22.73;5.60;;;;;;;14.43;100.00;100214.59;5094907;28;20439;-60
2022/10/24 00:02:49;;;;;;;15.05;5.10;;;;;;;14.44;100.00;100212.72;5094369;28;20409;-60
2022/10/24 00:05:16;;;;;;;18.75;4.90;;;;;;;14.40;100.00;100214.97;5092885;28;20047;-60
2022/10/24 00:07:42;;;;;;;20.48;5.15;;;;;;;14.38;100.00;100209.00;5094579;28;20051;-60
2022/10/24 00:10:11;;;;;;;22.65;5.38;;;;;;;14.43;100.00;100209.25;5094274;28;20048;-62
2022/10/24 00:12:38;;;;;;;18.25;4.70;;;;;;;14.47;100.00;100215.84;5094180;28;20043;-60
2022/10/24 00:15:06;;;;;;;24.88;5.32;;;;;;;14.50;100.00;100215.47;5093713;28;20052;-60
2022/10/24 00:17:33;;;;;;;24.80;5.18;;;;;;;14.51;100.00;100222.44;5094030;28;20048;-60
2022/10/24 00:20:00;;;;;;;19.60;4.97;;;;;;;14.47;100.00;100220.38;5093877;28;20489;-60
2022/10/24 00:22:27;;;;;;;22.77;5.22;;;;;;;14.49;100.00;100237.00;5094577;28;20040;-60
2022/10/24 00:24:54;;;;;;;18.15;4.78;;;;;;;14.50;100.00;100228.00;5094048;28;20066;-61
2022/10/24 00:27:21;;;;;;;23.05;5.43;;;;;;;14.46;100.00;100211.53;5094210;28;20127;-61
2022/10/24 00:29:47;;;;;;;19.35;4.82;;;;;;;14.45;100.00;100223.22;5093734;28;20113;-61
2022/10/24 00:32:14;;;;;;;21.38;5.05;;;;;;;14.45;100.00;100225.06;5093811;28;20111;-61
2022/10/24 00:34:42;;;;;;;21.33;5.10;;;;;;;14.46;100.00;100218.69;5094210;28;20047;-61
2022/10/24 00:37:08;;;;;;;17.92;4.28;;;;;;;14.48;100.00;100220.19;5093647;28;20493;-61
2022/10/24 00:39:35;;;;;;;17.65;4.75;;;;;;;14.50;100.00;100203.97;5093917;28;20493;-61
2022/10/24 00:42:03;;;;;;;20.33;5.13;;;;;;;14.50;100.00;100204.78;5094183;28;20507;-61
2022/10/24 00:44:35;;;;;;;23.58;5.25;;;;;;;14.51;100.00;100208.28;5093686;28;20489;-61
2022/10/24 00:47:10;;;;;;;17.05;5.30;;;;;;;14.50;100.00;100207.47;5093633;28;20068;-61
2022/10/24 00:50:01;;;;;;;21.45;4.95;;;;;;;14.52;100.00;100201.94;5093698;28;20074;-60
2022/10/24 00:52:32;;;;;;;19.13;4.95;;;;;;;14.53;100.00;100196.38;5053866;28;20421;-60
2022/10/24 00:55:01;;;;;;;21.45;4.88;;;;;;;14.51;100.00;100194.94;5093844;28;20048;-60
2022/10/24 00:57:36;;;;;;;17.75;4.78;;;;;;;14.52;100.00;100194.75;5093448;28;20101;-60
2022/10/24 01:00:07;;;;;;;17.50;4.90;;;;;;;14.55;100.00;100185.50;5093435;28;20040;-60
2022/10/24 01:02:35;;;;;;;20.73;4.25;;;;;;;14.55;99.92;100181.03;5093567;28;20044;-60
2022/10/24 01:05:04;;;;;;;20.02;4.70;;;;;;;14.61;100.00;100182.13;5092677;28;20123;-60
2022/10/24 01:10:51;;;;;;;17.88;4.55;;;;;;;14.70;99.43;100183.63;5103169;27;20576;-59
2022/10/24 01:13:40;;;;;;;22.38;4.35;;;;;;;14.70;98.80;100172.94;5070606;28;20086;-59
2022/10/24 01:16:17;;;;;;;14.70;3.97;;;;;;;14.74;99.00;100181.38;5070213;28;20048;-60
2022/10/24 01:18:57;;;;;;;16.98;4.57;;;;;;;14.71;99.19;100182.59;5068789;28;20039;-61
2022/10/24 01:21:30;;;;;;;16.50;4.30;;;;;;;14.71;98.93;100179.91;5052294;28;20491;-60
2022/10/24 01:24:32;;;;;;;22.63;5.15;;;;;;;14.67;99.28;100178.66;5070277;28;20041;-60
2022/10/24 01:27:11;;;;;;;24.67;5.85;;;;;;;14.72;99.15;100170.91;5049803;28;20045;-60
2022/10/24 01:30:02;;;;;;;16.42;4.35;;;;;;;14.74;99.47;100163.53;5049654;28;20041;-60
2022/10/24 01:32:55;;;;;;;21.75;5.30;;;;;;;14.68;99.11;100175.00;5049200;28;20451;-60
2022/10/24 01:35:34;;;;;;;16.13;4.15;;;;;;;14.68;99.58;100174.13;5049812;28;20183;-60
2022/10/24 01:43:42;;;;;;;29.15;4.22;;;;;;;14.64;100.00;100162.22;5102859;27;20166;-61
2022/10/24 01:46:14;;;;;;;23.35;4.68;;;;;;;14.66;99.78;100163.69;5070323;28;20044;-60
2022/10/24 01:48:46;;;;;;;30.98;5.15;;;;;;;14.68;99.28;100158.13;5070108;28;20116;-60
2022/10/24 01:51:16;;;;;;;28.27;4.85;;;;;;;14.65;100.00;100145.19;5036773;28;20041;-62
2022/10/24 01:53:44;;;;;;;25.75;5.47;;;;;;;14.63;99.87;100142.72;5085842;28;20095;-61
2022/10/24 01:56:11;;;;;;;24.70;4.55;;;;;;;14.62;100.00;100132.22;5070560;28;20397;-61
2022/10/24 01:58:38;;;;;;;14.68;4.22;;;;;;;14.61;100.00;100131.41;5069843;28;20068;-61
2022/10/24 02:01:08;;;;;;;14.27;4.65;;;;;;;14.61;99.25;100130.56;5070457;28;20045;-63
2022/10/24 02:03:40;;;;;;;20.53;5.20;;;;;;;14.54;99.87;100131.31;5069664;28;20041;-61
2022/10/24 02:06:15;;;;;;;23.60;4.80;;;;;;;14.56;99.20;100131.13;5068505;28;20495;-61
2022/10/24 02:08:46;;;;;;;18.73;4.80;;;;;;;14.53;99.52;100124.31;5102377;28;20063;-61
2022/10/24 02:11:13;;;;;;;19.98;4.18;;;;;;;14.55;99.24;100122.31;5070140;28;20044;-61
2022/10/24 02:13:52;;;;;;;18.63;4.82;;;;;;;14.54;99.16;100115.31;5070006;28;20067;-61
2022/10/24 02:16:19;;;;;;;23.45;5.00;;;;;;;14.55;99.43;100114.31;5069960;28;20098;-61
2022/10/24 02:18:50;;;;;;;20.35;5.10;;;;;;;14.51;99.12;100115.69;5069850;28;20094;-61
2022/10/24 02:21:28;;;;;;;19.05;4.43;;;;;;;14.52;98.44;100109.34;5069518;28;20538;-61
2022/10/24 02:24:20;;;;;;;12.40;4.43;;;;;;;14.59;97.58;100120.09;5069701;28;20041;-61
2022/10/24 02:27:10;;;;;;;19.90;4.32;;;;;;;14.57;97.92;100119.41;5069423;28;20520;-61
2022/10/24 02:29:46;;;;;;;17.38;4.72;;;;;;;14.56;97.45;100115.13;5069477;28;20632;-61
2022/10/24 02:32:18;;;;;;;24.95;5.03;;;;;;;14.63;97.33;100128.56;5068314;28;20052;-60
2022/10/24 02:34:48;;;;;;;15.82;4.47;;;;;;;14.63;96.50;100113.34;5052262;28;20048;-60
2022/10/24 02:37:16;;;;;;;18.05;4.35;;;;;;;14.58;97.69;100116.59;5102003;28;20102;-60
2022/10/24 02:39:46;;;;;;;23.38;5.32;;;;;;;14.48;98.19;100113.44;5069552;28;20045;-60
2022/10/24 02:42:14;;;;;;;17.42;4.63;;;;;;;14.52;97.01;100108.53;5067664;28;20041;-60
2022/10/24 02:44:45;;;;;;;16.42;4.85;;;;;;;14.49;97.80;100103.56;5069322;28;20052;-60
2022/10/24 02:47:14;;;;;;;21.05;5.43;;;;;;;14.54;97.14;100109.97;5068986;28;20052;-60
2022/10/24 02:49:41;;;;;;;14.48;4.80;;;;;;;14.55;96.19;100118.78;5068842;28;20041;-60
2022/10/24 02:52:09;;;;;;;18.77;4.40;;;;;;;14.52;96.73;100111.19;5029903;28;20045;-60
2022/10/24 02:54:35;;;;;;;16.27;4.43;;;;;;;14.53;96.31;100104.81;5056889;28;20075;-60
2022/10/24 02:57:03;;;;;;;16.55;4.43;;;;;;;14.51;96.34;100107.69;5054777;28;20057;-61
2022/10/24 02:59:29;;;;;;;20.48;4.28;;;;;;;14.54;96.50;100109.16;5055524;28;20449;-61
2022/10/24 03:01:56;;;;;;;19.15;4.60;;;;;;;14.49;96.99;100106.25;5055359;28;20467;-61
2022/10/24 03:04:23;;;;;;;17.10;4.70;;;;;;;14.50;95.86;100107.91;5055302;28;20513;-61
2022/10/24 03:06:52;;;;;;;21.38;4.53;;;;;;;14.48;96.57;100107.25;5055241;28;20075;-60
2022/10/24 03:09:18;;;;;;;16.30;5.10;;;;;;;14.48;95.87;100102.75;5055546;28;20045;-61
2022/10/24 03:11:45;;;;;;;16.45;4.47;;;;;;;14.47;96.25;100105.63;5055314;28;20041;-60
2022/10/24 03:14:12;;;;;;;29.25;5.30;;;;;;;14.47;95.75;100116.28;5055669;28;20064;-60
2022/10/24 03:16:38;;;;;;;20.45;4.72;;;;;;;14.56;94.35;100112.44;5055079;28;20049;-60
2022/10/24 03:19:05;;;;;;;17.25;4.55;;;;;;;14.57;95.07;100108.75;5053985;28;20049;-60
2022/10/24 03:21:32;;;;;;;20.80;4.10;;;;;;;14.54;94.83;100115.31;5055654;28;20045;-59
2022/10/24 03:23:58;;;;;;;17.10;4.00;;;;;;;14.53;93.84;100115.50;5055124;28;20041;-60
2022/10/24 03:26:25;;;;;;;15.52;4.18;;;;;;;14.58;93.38;100121.13;5050333;28;20041;-60
2022/10/24 03:28:52;;;;;;;18.38;3.90;;;;;;;14.67;91.92;100114.59;5034919;28;20037;-59
2022/10/24 03:31:18;;;;;;;16.92;4.00;;;;;;;14.73;92.15;100108.47;5035603;28;20046;-60
2022/10/24 03:33:45;;;;;;;15.68;4.30;;;;;;;14.77;92.29;100103.56;5034884;28;20052;-60
2022/10/24 03:36:12;;;;;;;25.00;4.55;;;;;;;14.78;90.86;100108.69;5035414;28;20124;-60
2022/10/24 03:38:39;;;;;;;16.65;4.45;;;;;;;14.86;90.06;100115.75;5034994;28;20050;-60
2022/10/24 03:41:05;;;;;;;28.55;4.07;;;;;;;14.85;90.04;100115.94;5050219;28;20498;-61
2022/10/24 03:43:32;;;;;;;22.73;3.72;;;;;;;14.83;89.92;100118.81;5034559;28;20454;-60
2022/10/24 03:45:59;;;;;;;19.67;4.13;;;;;;;14.82;89.63;100116.31;5034885;28;20048;-62
2022/10/24 03:48:26;;;;;;;22.15;4.45;;;;;;;14.86;88.93;100114.91;5033509;28;20053;-61
2022/10/24 03:50:53;;;;;;;15.98;4.10;;;;;;;14.94;88.50;100118.25;5020240;28;20045;-62
2022/10/24 03:53:20;;;;;;;24.48;4.28;;;;;;;14.87;89.63;100116.56;5014155;28;20042;-61
2022/10/24 03:55:47;;;;;;;18.35;4.60;;;;;;;14.86;89.24;100112.22;5084104;28;20052;-61
2022/10/24 03:58:13;;;;;;;19.55;3.90;;;;;;;14.84;89.01;100107.09;5054598;28;20056;-61
2022/10/24 04:00:41;;;;;;;13.65;3.97;;;;;;;14.81;87.92;100120.84;5054481;28;20052;-61
2022/10/24 04:03:09;;;;;;;24.42;4.07;;;;;;;14.83;89.60;100123.34;5054284;28;20045;-61
2022/10/24 04:05:36;;;;;;;16.75;3.78;;;;;;;14.81;90.18;100120.84;5084964;28;20048;-62
2022/10/24 04:08:08;;;;;;;17.13;3.95;;;;;;;14.71;90.24;100121.19;5086638;28;20048;-60
2022/10/24 04:10:35;;;;;;;18.63;4.63;;;;;;;14.67;91.36;100124.47;5054141;28;20048;-60
2022/10/24 04:13:01;;;;;;;18.48;4.40;;;;;;;14.61;92.80;100118.06;5052361;28;20509;-60
2022/10/24 04:15:28;;;;;;;24.88;4.57;;;;;;;14.58;93.15;100129.94;5042663;28;20045;-60
2022/10/24 04:17:55;;;;;;;21.25;4.80;;;;;;;14.56;93.83;100120.47;5054233;28;20460;-60
2022/10/24 04:20:22;;;;;;;17.98;4.13;;;;;;;14.44;93.84;100117.50;5053665;28;20045;-59
2022/10/24 04:22:49;;;;;;;19.55;4.07;;;;;;;14.45;93.87;100124.47;5054416;28;20053;-63
2022/10/24 04:25:16;;;;;;;18.08;4.15;;;;;;;14.40;93.74;100119.72;5054026;28;20049;-60
2022/10/24 04:27:44;;;;;;;21.02;4.10;;;;;;;14.39;93.19;100118.09;5054238;28;20406;-60
2022/10/24 04:30:12;;;;;;;16.52;4.05;;;;;;;14.36;93.98;100125.66;5053997;28;20049;-60
2022/10/24 04:32:40;;;;;;;15.77;3.95;;;;;;;14.34;94.16;100125.03;5054257;28;20045;-60
2022/10/24 04:35:07;;;;;;;23.00;4.68;;;;;;;14.37;94.05;100137.97;5054247;28;20197;-60
2022/10/24 04:37:34;;;;;;;20.58;5.28;;;;;;;14.31;94.26;100147.56;5053766;28;20057;-60
2022/10/24 04:40:01;;;;;;;18.40;3.95;;;;;;;14.33;93.67;100145.53;5054106;28;20052;-60
2022/10/24 04:42:28;;;;;;;19.35;4.03;;;;;;;14.37;94.11;100133.47;5052000;28;20053;-60
2022/10/24 04:44:55;;;;;;;17.67;4.65;;;;;;;14.38;93.61;100140.44;5053582;28;20041;-60
2022/10/24 04:47:21;;;;;;;25.20;5.05;;;;;;;14.34;94.18;100146.38;5053536;28;20041;-60
2022/10/24 04:49:48;;;;;;;17.85;4.38;;;;;;;14.35;93.13;100154.19;5052463;28;20049;-60
2022/10/24 04:52:15;;;;;;;25.30;4.53;;;;;;;14.32;94.22;100151.88;5047975;28;20049;-60
2022/10/24 04:54:42;;;;;;;17.50;4.47;;;;;;;14.20;94.69;100156.91;5053338;28;20045;-60
2022/10/24 04:57:09;;;;;;;13.27;4.30;;;;;;;14.25;94.45;100145.69;5053697;28;20045;-61
2022/10/24 04:59:36;;;;;;;15.82;4.38;;;;;;;14.20;95.75;100148.91;5052889;28;20041;-60
2022/10/24 05:02:02;;;;;;;20.02;4.18;;;;;;;14.15;93.92;100153.16;5053214;28;20136;-61
2022/10/24 05:04:29;;;;;;;19.85;4.32;;;;;;;14.13;94.72;100147.22;5052855;28;20076;-60
2022/10/24 05:06:56;;;;;;;17.80;3.90;;;;;;;14.14;92.51;100154.19;5053102;28;20114;-60
2022/10/24 05:09:23;;;;;;;20.48;4.60;;;;;;;14.19;93.87;100149.13;5053140;28;20041;-60
2022/10/24 05:11:50;;;;;;;20.13;4.10;;;;;;;14.18;93.95;100145.59;5052099;28;20055;-60
2022/10/24 05:14:16;;;;;;;19.30;4.00;;;;;;;14.19;92.75;100157.94;5052835;28;20082;-60
2022/10/24 05:16:43;;;;;;;24.45;4.10;;;;;;;14.16;93.11;100162.84;5052656;28;20053;-60
2022/10/24 05:19:10;;;;;;;20.83;4.05;;;;;;;14.13;91.83;100152.53;5052794;28;20387;-60
2022/10/24 05:21:36;;;;;;;16.50;3.80;;;;;;;14.18;92.74;100152.78;5053218;28;20045;-60
2022/10/24 05:24:03;;;;;;;19.35;3.80;;;;;;;14.18;92.19;100160.78;5052675;28;20091;-60
2022/10/24 05:26:30;;;;;;;14.40;3.90;;;;;;;14.18;90.68;100166.94;5044784;28;20044;-60
2022/10/24 05:28:56;;;;;;;14.38;3.30;;;;;;;14.25;90.49;100163.53;5069207;28;20048;-60
2022/10/24 05:31:23;;;;;;;17.70;3.83;;;;;;;14.27;89.05;100154.31;5071629;28;20123;-60
2022/10/24 05:33:50;;;;;;;20.98;4.13;;;;;;;14.30;88.13;100159.28;5072365;28;20044;-60
2022/10/24 05:36:17;;;;;;;16.42;3.70;;;;;;;14.39;87.07;100154.63;5072999;28;20060;-60
2022/10/24 05:38:44;;;;;;;23.92;4.97;;;;;;;14.43;88.58;100155.88;5071117;28;20045;-60
2022/10/24 05:41:10;;;;;;;16.05;3.85;;;;;;;14.38;86.44;100151.09;5072390;28;20040;-60
2022/10/24 05:43:37;;;;;;;16.52;4.30;;;;;;;14.44;86.49;100154.84;5031321;28;20124;-60
2022/10/24 05:46:05;;;;;;;14.45;4.03;;;;;;;14.47;85.49;100167.00;5012862;28;20116;-60
2022/10/24 05:48:31;;;;;;;16.58;4.57;;;;;;;14.52;85.42;100160.06;5012627;28;20046;-60
2022/10/24 05:50:58;;;;;;;18.48;4.68;;;;;;;14.50;85.65;100175.44;4996815;28;20046;-60
2022/10/24 05:53:25;;;;;;;16.30;4.55;;;;;;;14.51;86.61;100166.41;4974904;28;20042;-60
2022/10/24 05:55:53;;;;;;;23.08;5.50;;;;;;;14.51;86.22;100163.72;5012416;28;20052;-60
2022/10/24 05:58:21;;;;;;;19.73;4.82;;;;;;;14.46;87.31;100176.84;5012622;28;20439;-61
2022/10/24 06:00:49;;;;;;;18.58;5.20;;;;;;;14.46;87.56;100174.19;5012348;28;20404;-61
2022/10/24 06:03:19;;;;;;;22.65;5.65;;;;;;;14.44;86.37;100181.53;5012498;28;20057;-61
2022/10/24 06:05:45;;;;;;;18.55;5.85;;;;;;;14.47;85.65;100181.16;5012294;28;20119;-61
2022/10/24 06:08:12;;;;;;;22.15;5.85;;;;;;;14.46;86.69;100176.00;5011290;28;20373;-61
2022/10/24 06:10:40;;;;;;;22.08;6.00;;;;;;;14.48;86.02;100180.16;5013101;28;20070;-61
2022/10/24 06:13:07;;;;;;;20.55;6.03;;;;;;;14.49;84.59;100187.13;5013053;28;20053;-61
2022/10/24 06:15:33;;;;;;;25.88;6.60;;;;;;;14.48;86.16;100184.63;5012476;28;20045;-61
2022/10/24 06:18:00;;;;;;;28.35;6.30;;;;;;;14.43;84.58;100187.91;5011651;28;20037;-61
2022/10/24 06:20:27;;;;;;;18.00;5.78;;;;;;;14.44;84.25;100178.84;5012722;28;20512;-61
2022/10/24 06:22:53;;;;;;;19.77;5.88;;;;;;;14.47;84.97;100186.50;5011691;28;20141;-61
2022/10/24 06:25:21;;;;;;;17.80;5.45;;;;;;;14.48;83.83;100188.16;5012848;28;20057;-61
2022/10/24 06:27:48;;;;;;;21.92;5.90;;;;;;;14.45;85.60;100179.72;5013051;28;20045;-61
2022/10/24 06:30:15;;;;;;;28.90;6.95;;;;;;;14.40;85.18;100178.41;5015442;28;20042;-61
2022/10/24 06:32:41;;;;;;;18.00;5.22;;;;;;;14.45;84.87;100185.88;5016056;28;20417;-61
2022/10/24 06:35:12;;;;;;;22.13;6.13;;;;;;;14.43;85.85;100195.09;5016655;28;20076;-61
2022/10/24 06:37:39;;;;;;;16.67;5.05;;;;;;;14.47;85.58;100199.00;5016304;28;20042;-61
2022/10/24 06:40:06;;;;;;;17.98;4.53;;;;;;;14.43;84.83;100211.91;5016536;28;20046;-61
2022/10/24 06:42:33;;;;;;;13.73;4.30;;;;;;;14.46;85.18;100214.22;5038042;28;20506;-61
2022/10/24 06:44:59;;;;;;;18.42;3.92;;;;;;;14.47;84.89;100215.84;5055469;28;20045;-61
2022/10/24 06:47:31;;;;;;;13.85;3.45;;;;;;;14.59;84.71;100211.66;5055995;28;20120;-61
2022/10/24 06:49:58;;;;;;;15.15;3.60;;;;;;;14.57;85.24;100216.38;5055975;28;20551;-61
2022/10/24 06:52:24;;;;;;;17.70;3.45;;;;;;;14.61;84.81;100222.16;5018304;28;20509;-61
2022/10/24 06:54:51;;;;;;;14.40;4.13;;;;;;;14.59;83.78;100209.00;5055482;28;20053;-61
2022/10/24 06:57:18;;;;;;;14.80;3.30;;;;;;;14.62;83.28;100213.13;5054806;28;20049;-61
2022/10/24 06:59:45;;;;;;;13.75;3.50;;;;;;;14.68;83.50;100217.69;5055038;28;20441;-60
2022/10/24 07:02:13;;;;;;;12.65;3.10;;;;;;;14.68;83.77;100222.19;5055755;28;20055;-61
2022/10/24 07:04:40;;;;;;;16.08;3.70;;;;;;;14.76;84.62;100222.88;5087298;28;20045;-61
2022/10/24 07:07:11;;;;;;;14.32;3.17;;;;;;;14.83;84.50;100222.94;5051026;28;20044;-61
2022/10/24 07:09:38;;;;;;;15.57;3.55;;;;;;;14.81;83.27;100222.31;5051858;28;20474;-61
2022/10/24 07:12:05;;;;;;;17.77;2.85;;;;;;;14.86;82.87;100232.41;5050457;28;20038;-61
2022/10/24 07:14:32;;;;;;;17.60;3.10;;;;;;;14.96;83.72;100228.38;5043768;28;20124;-61
2022/10/24 07:16:59;;;;;;;14.57;2.83;;;;;;;14.94;81.75;100235.75;5055279;28;20482;-61
2022/10/24 07:19:25;;;;;;;12.93;2.80;;;;;;;15.00;81.71;100244.00;5054987;28;20051;-61
2022/10/24 07:21:52;;;;;;;13.60;2.70;;;;;;;15.05;82.63;100242.41;5054696;28;20098;-61
2022/10/24 07:24:20;;;;;;;14.10;3.08;;;;;;;15.01;82.28;100254.50;5040349;28;20140;-61
2022/10/24 07:26:47;;;;;;;22.90;3.40;;;;;;;15.12;81.72;100248.59;5048291;28;20045;-61
2022/10/24 07:29:13;;;;;;;11.30;2.60;;;;;;;15.22;81.38;100248.25;5052563;28;20040;-61
2022/10/24 07:31:40;;;;;;;15.90;3.13;;;;;;;15.21;81.59;100251.97;5041663;28;20048;-59
2022/10/24 07:34:08;;;;;;;15.00;3.20;;;;;;;15.23;80.97;100252.59;5065283;28;20436;-55
2022/10/24 07:36:35;;;;;;;15.50;2.95;;;;;;;15.32;81.21;100261.28;5054833;28;20179;-54
2022/10/24 07:39:04;;;;;;;18.25;3.20;;;;;;;15.41;79.66;100257.41;5056976;28;20049;-55
2022/10/24 07:41:32;;;;;;;16.10;3.53;;;;;;;15.47;79.60;100261.97;5061971;28;20054;-55
2022/10/24 07:44:01;;;;;;;21.95;3.80;;;;;;;15.51;78.76;100267.75;5054361;28;20072;-55
2022/10/24 07:46:28;;;;;;;16.80;3.10;;;;;;;15.46;80.33;100267.50;5058995;28;20380;-54
2022/10/24 07:48:55;;;;;;;15.45;3.10;;;;;;;15.41;79.37;100270.78;5063032;28;20433;-55
2022/10/24 07:51:22;;;;;;;12.82;2.90;;;;;;;15.58;77.14;100273.94;5013991;28;20107;-56
2022/10/24 07:53:49;;;;;;;16.98;3.30;;;;;;;15.56;78.60;100281.34;5055597;28;20123;-60
2022/10/24 07:56:16;;;;;;;17.10;3.30;;;;;;;15.57;78.83;100272.28;5056331;28;20388;-60
2022/10/24 07:58:45;;;;;;;19.77;3.45;;;;;;;15.62;78.13;100272.50;5054285;28;20053;-60
2022/10/24 08:01:15;;;;;;;14.45;3.30;;;;;;;15.67;79.03;100270.06;5065014;28;20045;-63
2022/10/24 08:03:41;;;;;;;17.85;3.83;;;;;;;15.69;78.31;100284.06;5050180;28;20060;-60
2022/10/24 08:06:11;;;;;;;19.55;3.33;;;;;;;15.80;77.69;100273.88;5038994;28;20045;-60
2022/10/24 08:08:38;;;;;;;15.55;2.70;;;;;;;15.98;74.21;100274.13;5057040;28;20045;-60
2022/10/24 08:11:07;;;;;;;13.80;2.50;;;;;;;16.06;73.18;100275.81;5051454;28;20045;-60
2022/10/24 08:13:35;;;;;;;13.32;2.58;;;;;;;16.22;71.77;100282.66;5057658;28;20402;-60
2022/10/24 08:16:06;;;;;;;17.05;2.30;;;;;;;16.30;71.14;100299.34;5059923;28;20098;-60
2022/10/24 08:18:33;;;;;;;22.60;2.83;;;;;;;16.33;70.42;100284.72;5057113;28;20056;-60
2022/10/24 08:21:05;;;;;;;13.75;2.33;;;;;;;16.37;70.46;100272.59;5064795;28;20041;-60
2022/10/24 08:23:33;;;;;;;17.27;2.55;;;;;;;16.36;71.16;100278.97;5051206;28;20071;-60
2022/10/24 08:26:04;;;;;;;19.75;2.35;;;;;;;16.45;70.38;100279.59;5050258;28;20099;-60
2022/10/24 08:28:31;;;;;;;12.35;2.20;;;;;;;16.44;70.15;100270.72;5052692;28;20466;-60
2022/10/24 08:31:00;;;;;;;20.67;2.47;;;;;;;16.38;70.71;100276.91;5066308;28;20040;-60
2022/10/24 08:33:28;;;;;;;12.40;2.22;;;;;;;16.44;70.13;100280.63;5055049;28;20057;-60
2022/10/24 08:35:58;;;;;;;15.00;2.00;;;;;;;16.60;68.98;100282.09;5066304;28;20040;-60
2022/10/24 08:38:26;;;;;;;17.95;2.40;;;;;;;16.43;69.26;100273.63;5048814;28;20049;-60
2022/10/24 08:40:53;;;;;;;16.25;2.63;;;;;;;16.56;69.54;100281.69;5066093;28;20121;-60
2022/10/24 08:43:20;;;;;;;23.00;2.75;;;;;;;16.56;69.40;100295.06;5057973;28;20048;-60
2022/10/24 08:46:07;;;;;;;10.98;1.92;;;;;;;16.48;69.22;100295.25;5058025;28;20036;-60
2022/10/24 08:48:43;;;;;;;18.85;2.38;;;;;;;16.51;69.21;100286.81;5052846;28;20656;-60
2022/10/24 08:51:23;;;;;;;17.00;2.45;;;;;;;16.49;68.59;100292.38;4982788;28;20045;-60
2022/10/24 08:53:55;;;;;;;18.52;2.45;;;;;;;16.60;68.26;100295.47;5054467;28;20037;-60
2022/10/24 08:56:24;;;;;;;15.50;2.67;;;;;;;16.56;68.66;100307.63;5050916;28;20041;-60
2022/10/24 08:58:51;;;;;;;12.02;2.05;;;;;;;16.64;69.74;100310.09;5052525;28;20076;-60
2022/10/24 09:01:42;;;;;;;11.48;2.15;;;;;;;16.69;67.83;100304.97;5057557;28;20032;-60
2022/10/24 09:04:14;;;;;;;17.58;2.20;;;;;;;16.74;68.94;100299.00;5048766;28;20082;-60
2022/10/24 09:06:40;;;;;;;;;;;;;;;16.75;67.40;100314.03;5052491;28;20119;-60
2022/10/24 09:09:16;;;;;;;10.82;2.10;;;;;;;16.82;67.80;100306.81;5051715;28;19920;-60
2022/10/24 09:11:51;;;;;;;18.55;2.65;;;;;;;16.92;67.85;100306.44;5050970;28;20509;-60
2022/10/24 09:14:25;;;;;;;16.17;2.20;;;;;;;16.97;67.39;100304.81;5059254;28;20037;-60
2022/10/24 09:17:21;;;;;;;12.75;2.20;;;;;;;17.02;67.05;100301.50;5067589;28;20058;-60
2022/10/24 09:19:52;;;;;;;13.18;2.20;;;;;;;17.02;66.72;100313.03;5036841;28;20483;-60
2022/10/24 09:22:21;;;;;;;16.13;2.35;;;;;;;17.00;67.04;100298.19;5045574;28;20037;-60
2022/10/24 09:24:54;;;;;;;20.17;2.40;;;;;;;16.97;67.93;100298.59;5053781;28;20095;-60
2022/10/24 09:27:24;;;;;;;18.85;2.97;;;;;;;16.93;67.88;100300.06;5055620;28;20131;-60
2022/10/24 09:29:51;;;;;;;9.50;2.13;;;;;;;16.84;68.39;100308.28;5043804;28;20412;-61
2022/10/24 09:32:22;;;;;;;18.10;2.35;;;;;;;16.85;68.29;100303.78;5041208;28;20116;-60
2022/10/24 09:34:49;;;;;;;12.05;2.22;;;;;;;16.80;68.91;100303.53;5029838;28;20077;-60
2022/10/24 09:37:45;;;;;;;17.02;2.42;;;;;;;16.78;68.53;100313.63;5059091;28;20052;-60
2022/10/24 09:40:25;;;;;;;15.18;3.00;;;;;;;16.82;68.91;100315.66;5027158;28;20115;-60
2022/10/24 09:43:14;;;;;;;18.00;2.70;;;;;;;16.81;68.94;100318.59;5063484;28;20070;-60
2022/10/24 09:45:47;;;;;;;17.48;2.30;;;;;;;16.86;68.43;100310.75;5043596;28;20029;-60
2022/10/24 09:48:25;;;;;;;17.58;2.38;;;;;;;16.98;67.72;100317.16;5051092;28;20048;-60
2022/10/24 09:50:54;;;;;;;14.38;2.42;;;;;;;17.08;67.62;100325.63;5031605;28;20494;-61
2022/10/24 09:53:29;;;;;;;16.58;2.50;;;;;;;17.16;67.87;100323.75;5032272;28;20045;-60
2022/10/24 09:56:00;;;;;;;16.65;2.20;;;;;;;17.17;67.30;100330.75;5047697;28;20070;-60
2022/10/24 09:58:32;;;;;;;17.85;2.85;;;;;;;17.18;67.66;100335.91;5050022;28;20060;-61
2022/10/24 10:01:03;;;;;;;15.70;2.42;;;;;;;17.25;67.66;100343.94;5043740;28;20095;-61
2022/10/24 10:03:31;;;;;;;15.68;2.58;;;;;;;17.33;68.08;100342.91;5052176;28;20041;-60
2022/10/24 10:06:03;;;;;;;15.48;2.35;;;;;;;17.33;67.64;100353.63;5052359;28;20037;-61
2022/10/24 10:08:34;;;;;;;12.02;1.80;;;;;;;17.32;67.27;100347.44;5054878;28;20098;-60
2022/10/24 10:11:05;;;;;;;16.88;2.10;;;;;;;17.14;68.26;100339.22;5054176;28;20106;-60
2022/10/24 10:13:37;;;;;;;17.85;2.58;;;;;;;17.20;68.07;100351.78;5054621;28;20091;-61
2022/10/24 10:16:26;;;;;;;20.95;3.13;;;;;;;17.28;66.99;100351.56;5053027;28;20049;-61
2022/10/24 10:19:02;;;;;;;13.45;2.33;;;;;;;17.27;66.58;100352.59;5051962;28;20080;-61
2022/10/24 10:21:54;;;;;;;22.67;2.53;;;;;;;17.33;67.24;100353.63;5054916;28;20107;-60
2022/10/24 10:24:24;;;;;;;;;;;;;;;17.41;66.47;100356.94;5052259;28;20040;-61
2022/10/24 10:26:51;;;;;;;17.45;2.42;;;;;;;17.34;67.01;100358.78;5054062;28;19924;-60
2022/10/24 10:32:06;;;;;;;23.30;2.58;;;;;;;17.59;65.62;100350.91;5108386;27;20593;-59
2022/10/24 10:34:39;;;;;;;12.25;2.28;;;;;;;17.54;66.01;100355.25;5105769;28;20729;-60
2022/10/24 10:37:30;;;;;;;16.83;2.20;;;;;;;17.54;66.13;100368.66;5109656;28;20051;-59
2022/10/24 10:40:24;;;;;;;15.32;2.17;;;;;;;17.49;66.14;100376.50;5105272;28;20040;-59
2022/10/24 10:45:44;;;;;;;16.40;2.30;;;;;;;17.37;66.79;100374.47;5069291;28;20364;-62
2022/10/24 10:48:41;;;;;;;13.25;2.20;;;;;;;17.33;67.25;100381.25;5047072;28;20043;-59
2022/10/24 10:51:23;;;;;;;15.93;2.35;;;;;;;17.39;67.62;100390.31;5020460;28;20530;-61
2022/10/24 10:54:06;;;;;;;14.90;2.28;;;;;;;17.37;67.13;100389.69;5049863;28;20037;-61
2022/10/24 10:56:45;;;;;;;11.15;1.90;;;;;;;17.43;66.50;100391.56;5047505;28;20498;-61
2022/10/24 10:59:41;;;;;;;18.67;2.42;;;;;;;17.37;66.89;100393.22;5045529;28;20071;-61
2022/10/24 11:05:32;;;;;;;15.40;2.33;;;;;;;17.38;67.19;100407.47;5101657;27;20351;-59
2022/10/24 11:11:01;;;;;;;46.50;5.03;;;;;;;17.25;66.54;100405.59;5063167;28;20690;-59
2022/10/24 11:13:39;;;;;;;14.90;2.63;;;;;;;17.19;67.35;100411.75;5068913;28;20056;-61
2022/10/24 11:16:18;;;;;;;18.55;2.55;;;;;;;17.29;66.06;100406.00;5063534;28;20049;-61
2022/10/24 11:18:49;;;;;;;17.25;2.83;;;;;;;17.25;67.17;100419.81;5068062;28;20049;-60
2022/10/24 11:21:20;;;;;;;18.80;2.50;;;;;;;17.36;67.09;100402.28;5060819;28;20049;-59
2022/10/24 11:23:54;;;;;;;18.60;2.83;;;;;;;17.42;66.32;100417.53;5067575;28;20494;-59
2022/10/24 11:26:44;;;;;;;15.27;2.05;;;;;;;17.79;65.38;100414.41;5064320;28;20033;-61
2022/10/24 11:29:22;;;;;;;17.23;2.22;;;;;;;17.65;66.15;100417.13;5068600;28;20041;-61
2022/10/24 11:31:56;;;;;;;12.98;2.45;;;;;;;17.62;65.95;100420.22;5058777;28;20041;-60
2022/10/24 11:34:31;;;;;;;20.23;2.38;;;;;;;17.88;64.27;100418.53;5069952;28;20040;-60
2022/10/24 11:37:05;;;;;;;18.55;2.22;;;;;;;17.74;64.59;100415.03;5061206;28;20037;-60
2022/10/24 11:39:43;;;;;;;20.42;2.70;;;;;;;17.63;64.98;100423.72;5066534;28;20552;-60
2022/10/24 11:42:26;;;;;;;21.88;3.00;;;;;;;17.55;65.22;100422.06;5064781;28;20068;-60
2022/10/24 11:45:11;;;;;;;21.45;2.70;;;;;;;17.45;65.59;100419.81;5068198;28;20049;-60
2022/10/24 11:47:53;;;;;;;19.73;2.70;;;;;;;17.41;66.47;100412.41;5062991;28;20045;-60
2022/10/24 11:50:31;;;;;;;18.20;2.67;;;;;;;17.37;66.69;100417.38;5068426;28;20135;-60
2022/10/24 11:53:16;;;;;;;18.13;2.65;;;;;;;17.48;66.58;100413.19;5026990;28;20570;-60